New Salem, North Carolina
Current Conditions -  °F | °C
As of 2:15 AM on Thursday 18 Dec 2014 (Local Time) from KHBI Reporting Station
Clear Clear  
Wind Chill: 36°   Ceiling: Unl
Heat Index: 36°   Visibility: 10mi
Dew Point: 32°   Wind: 0mph
Humidity: 85%   Direction: NA
Pressure: 30.12"   Gusts: NA
Location:  35.8558°N, 79.7985°W
Report Text: KHBI 180715Z AUTO 00000KT 10SM CLR 02/00 A3012 RMK AO2 T00201002
Loading
Personal Weather Stations






























Interactive Weather Map New forecast layout! Learn more

10-Day Weather Forecast

Advertisements
Track Severe Weather on mobile